Time;durP1;ratioP1;P1;durP2;ratioP2;P2;SDS_P1;SDS_P2;PMS_P1;PMS_P2;Temp;Humidity;BMP_temperature;BMP_pressure;BME280_temperature;BME280_humidity;BME280_pressure;Samples;Min_cycle;Max_cycle;Signal;HPM_P1;HPM_P2
2023/12/04 00:01:19;;;;;;;4.65;4.25;;;17.90;52.20;;;;;;4973328;28;20275;-72
2023/12/04 00:03:45;;;;;;;4.60;4.20;;;17.80;52.10;;;;;;4980160;28;20217;-71
2023/12/04 00:06:12;;;;;;;4.15;3.85;;;17.80;52.20;;;;;;4977672;28;20181;-71
2023/12/04 00:08:38;;;;;;;4.78;4.38;;;17.80;52.00;;;;;;4975103;28;20304;-71
2023/12/04 00:11:07;;;;;;;4.03;3.70;;;17.80;52.60;;;;;;4975307;28;20588;-71
2023/12/04 00:13:33;;;;;;;4.85;4.45;;;17.80;52.10;;;;;;4975420;28;20332;-71
2023/12/04 00:15:59;;;;;;;4.28;3.88;;;17.80;51.90;;;;;;4975048;28;20268;-71
2023/12/04 00:18:25;;;;;;;4.63;4.18;;;17.80;52.00;;;;;;4976255;28;20260;-70
2023/12/04 00:20:52;;;;;;;4.45;4.15;;;17.80;52.00;;;;;;4975009;28;20664;-71
2023/12/04 00:23:17;;;;;;;4.28;3.97;;;17.80;52.00;;;;;;4982023;28;20292;-68
2023/12/04 00:25:43;;;;;;;4.60;4.20;;;17.80;52.00;;;;;;4959903;28;20235;-72
2023/12/04 00:28:09;;;;;;;4.07;3.78;;;17.80;52.70;;;;;;4967954;28;20268;-71
2023/12/04 00:30:35;;;;;;;3.75;3.45;;;17.80;51.90;;;;;;4975996;28;20201;-72
2023/12/04 00:33:01;;;;;;;3.97;3.67;;;17.80;51.90;;;;;;4985329;28;20194;-72
2023/12/04 00:35:27;;;;;;;4.72;4.32;;;17.80;52.00;;;;;;4974723;28;20277;-71
2023/12/04 00:37:53;;;;;;;3.88;3.58;;;17.80;51.90;;;;;;4976799;28;20213;-71
2023/12/04 00:40:19;;;;;;;3.97;3.63;;;17.80;51.90;;;;;;4980028;28;20200;-71
2023/12/04 00:42:44;;;;;;;3.90;3.60;;;17.80;51.90;;;;;;4974692;28;20223;-71
2023/12/04 00:45:10;;;;;;;4.28;3.97;;;17.80;51.90;;;;;;4991197;28;20194;-71
2023/12/04 00:47:36;;;;;;;3.97;3.67;;;17.80;51.90;;;;;;4976733;28;20186;-71
2023/12/04 00:50:02;;;;;;;4.07;3.78;;;17.80;51.90;;;;;;4956570;28;20213;-71
2023/12/04 00:52:28;;;;;;;3.75;3.45;;;17.80;51.90;;;;;;4965593;28;20189;-71
2023/12/04 00:54:54;;;;;;;3.60;3.30;;;17.80;52.00;;;;;;4967471;28;20201;-70
2023/12/04 00:57:20;;;;;;;4.10;3.70;;;17.80;51.90;;;;;;4973640;28;20210;-71
2023/12/04 00:59:46;;;;;;;3.85;3.53;;;17.80;51.90;;;;;;4981626;28;20228;-71
2023/12/04 01:02:12;;;;;;;3.53;3.22;;;17.80;51.90;;;;;;4982287;28;20221;-71
2023/12/04 01:04:41;;;;;;;4.03;3.72;;;17.80;51.70;;;;;;4959304;28;20236;-71
2023/12/04 01:07:07;;;;;;;3.85;3.55;;;17.80;51.90;;;;;;4967227;28;20295;-71
2023/12/04 01:09:36;;;;;;;3.63;3.33;;;17.80;51.90;;;;;;4974768;28;20212;-71
2023/12/04 01:12:02;;;;;;;3.42;3.15;;;17.80;51.90;;;;;;4974522;28;20198;-71
2023/12/04 01:14:28;;;;;;;3.80;3.50;;;17.80;51.90;;;;;;4956811;28;20200;-71
2023/12/04 01:16:54;;;;;;;3.88;3.58;;;17.80;51.90;;;;;;4974099;28;20190;-72
2023/12/04 01:19:19;;;;;;;3.58;3.28;;;17.80;51.90;;;;;;4989959;28;20279;-71
2023/12/04 01:21:45;;;;;;;3.47;3.20;;;17.80;51.90;;;;;;4988191;28;20194;-71
2023/12/04 01:24:11;;;;;;;3.65;3.35;;;17.80;51.80;;;;;;4987228;28;20194;-71
2023/12/04 01:26:37;;;;;;;3.03;2.83;;;17.80;51.80;;;;;;4974168;28;20672;-71
2023/12/04 01:29:03;;;;;;;3.08;2.85;;;17.80;51.90;;;;;;4987369;28;20214;-71
2023/12/04 01:31:29;;;;;;;3.15;2.95;;;17.80;51.90;;;;;;4991186;28;20194;-71
2023/12/04 01:33:54;;;;;;;3.38;3.08;;;17.80;51.80;;;;;;4966372;28;20284;-71
2023/12/04 01:36:20;;;;;;;3.80;3.50;;;17.80;51.90;;;;;;4973942;28;20202;-71
2023/12/04 01:38:46;;;;;;;2.92;2.72;;;17.80;51.90;;;;;;4973460;28;20248;-71
2023/12/04 01:41:12;;;;;;;3.58;3.28;;;17.80;51.80;;;;;;4973585;28;20208;-71
2023/12/04 01:43:37;;;;;;;2.70;2.50;;;17.80;51.80;;;;;;4969044;28;20232;-71
2023/12/04 01:46:04;;;;;;;3.00;2.80;;;17.80;52.40;;;;;;4979244;28;20190;-71
2023/12/04 01:48:30;;;;;;;3.78;2.70;;;17.80;51.90;;;;;;4957607;28;20213;-71
2023/12/04 01:51:02;;;;;;;2.70;2.50;;;17.80;51.90;;;;;;4979152;28;20189;-71
2023/12/04 01:53:28;;;;;;;3.00;2.80;;;17.80;51.90;;;;;;4973433;28;20198;-71
2023/12/04 01:55:53;;;;;;;3.08;2.88;;;17.80;51.90;;;;;;4960393;28;20198;-71
2023/12/04 01:58:20;;;;;;;2.47;2.35;;;17.80;51.90;;;;;;4957018;28;20283;-71
2023/12/04 02:00:46;;;;;;;2.90;2.70;;;17.80;51.90;;;;;;4957496;28;20197;-71
2023/12/04 02:03:14;;;;;;;2.70;2.50;;;17.80;51.90;;;;;;4973383;28;20218;-71
2023/12/04 02:05:40;;;;;;;2.83;2.63;;;17.80;51.90;;;;;;4986394;28;20637;-71
2023/12/04 02:08:06;;;;;;;2.60;2.40;;;17.80;51.90;;;;;;4965287;28;20716;-71
2023/12/04 02:10:32;;;;;;;3.00;2.80;;;17.80;51.90;;;;;;4988153;28;20190;-71
2023/12/04 02:12:58;;;;;;;2.88;2.67;;;17.80;51.80;;;;;;4970678;28;20275;-71
2023/12/04 02:15:24;;;;;;;2.58;2.38;;;17.80;51.80;;;;;;4974870;28;20189;-71
2023/12/04 02:17:50;;;;;;;2.53;2.33;;;17.70;51.80;;;;;;4988718;28;20193;-71
2023/12/04 02:20:17;;;;;;;2.65;2.45;;;17.80;51.80;;;;;;4973967;28;20193;-71
2023/12/04 02:22:44;;;;;;;2.70;2.50;;;17.80;51.80;;;;;;4988762;28;20213;-71
2023/12/04 02:25:11;;;;;;;2.65;2.45;;;17.80;51.80;;;;;;4972085;28;20260;-72
2023/12/04 02:27:55;;;;;;;2.63;2.42;;;17.80;51.80;;;;;;4973278;28;20285;-71
2023/12/04 02:30:24;;;;;;;2.20;2.10;;;17.80;51.80;;;;;;4972657;28;20229;-71
2023/12/04 02:32:52;;;;;;;2.80;2.60;;;17.80;51.90;;;;;;4972876;28;20204;-71
2023/12/04 02:35:26;;;;;;;2.35;2.20;;;17.70;51.70;;;;;;4969622;28;20201;-71
2023/12/04 02:37:53;;;;;;;2.30;2.10;;;17.80;51.80;;;;;;4985389;28;20588;-72
2023/12/04 02:40:19;;;;;;;2.33;2.15;;;17.80;51.80;;;;;;4969591;28;20253;-71
2023/12/04 02:42:45;;;;;;;2.72;2.53;;;17.80;51.70;;;;;;4972628;28;20300;-71
2023/12/04 02:45:11;;;;;;;2.47;2.35;;;17.70;51.80;;;;;;4987272;28;20204;-71
2023/12/04 02:47:37;;;;;;;2.13;2.03;;;17.80;51.70;;;;;;4973655;28;20185;-72
2023/12/04 02:50:03;;;;;;;2.70;2.50;;;17.70;51.60;;;;;;4972373;28;20285;-71
2023/12/04 02:52:29;;;;;;;1.85;1.75;;;17.70;51.70;;;;;;4979528;28;20197;-70
2023/12/04 02:54:55;;;;;;;2.30;2.10;;;17.70;51.70;;;;;;4972889;28;20185;-71
2023/12/04 02:57:21;;;;;;;2.10;2.00;;;17.70;51.60;;;;;;4956663;28;20201;-71
2023/12/04 02:59:48;;;;;;;2.10;2.00;;;17.70;51.60;;;;;;4972663;28;20268;-71
2023/12/04 03:02:14;;;;;;;2.63;2.42;;;17.70;51.70;;;;;;4988441;28;20272;-71
2023/12/04 03:04:40;;;;;;;2.63;2.42;;;17.70;51.60;;;;;;4988087;28;20197;-71
2023/12/04 03:07:05;;;;;;;2.20;2.00;;;17.70;51.60;;;;;;4972145;28;20190;-71
2023/12/04 03:09:31;;;;;;;2.47;2.30;;;17.70;51.60;;;;;;4987274;28;20253;-71
2023/12/04 03:11:57;;;;;;;2.42;2.22;;;17.70;51.60;;;;;;4971923;28;20653;-71
2023/12/04 03:14:23;;;;;;;1.95;1.85;;;17.70;51.60;;;;;;4988332;28;20192;-70
2023/12/04 03:16:49;;;;;;;2.22;2.05;;;17.70;51.50;;;;;;4971809;28;20217;-71
2023/12/04 03:19:15;;;;;;;2.45;2.25;;;17.70;51.60;;;;;;4972801;28;20304;-71
2023/12/04 03:21:41;;;;;;;2.15;2.05;;;17.70;51.50;;;;;;4978881;28;20350;-69
2023/12/04 03:24:07;;;;;;;1.90;1.80;;;17.70;51.50;;;;;;4986903;28;20630;-69
2023/12/04 03:26:32;;;;;;;2.00;1.90;;;17.70;51.50;;;;;;4972614;28;20248;-71
2023/12/04 03:28:58;;;;;;;2.47;2.28;;;17.70;51.50;;;;;;4987220;28;20206;-71
2023/12/04 03:31:25;;;;;;;2.00;1.90;;;17.70;51.60;;;;;;4971881;28;20197;-70
2023/12/04 03:33:50;;;;;;;2.20;2.00;;;17.70;51.50;;;;;;4971932;28;20692;-71
2023/12/04 03:36:16;;;;;;;2.20;2.05;;;17.70;51.50;;;;;;4979689;28;20193;-71
2023/12/04 03:38:42;;;;;;;1.85;1.75;;;17.70;51.60;;;;;;4972280;28;20225;-71
2023/12/04 03:41:17;;;;;;;1.92;1.83;;;17.70;51.60;;;;;;4964727;28;20315;-71
2023/12/04 03:43:43;;;;;;;1.80;1.70;;;17.70;51.50;;;;;;4954119;28;20709;-69
2023/12/04 03:46:09;;;;;;;1.95;1.85;;;17.70;51.50;;;;;;4971827;28;20568;-69
2023/12/04 03:48:35;;;;;;;1.90;1.80;;;17.70;51.50;;;;;;4978457;28;20221;-71
2023/12/04 03:51:00;;;;;;;1.90;1.80;;;17.70;51.40;;;;;;4971528;28;20573;-71
2023/12/04 03:53:26;;;;;;;2.10;2.00;;;17.70;51.40;;;;;;4980996;28;20205;-72
2023/12/04 03:55:52;;;;;;;1.95;1.85;;;17.70;51.40;;;;;;4987991;28;20197;-71
2023/12/04 03:58:18;;;;;;;2.28;2.08;;;17.70;51.50;;;;;;4987598;28;20224;-70
2023/12/04 04:00:44;;;;;;;2.17;2.00;;;17.70;51.50;;;;;;4966105;28;20190;-71
2023/12/04 04:03:10;;;;;;;1.80;1.70;;;17.70;51.40;;;;;;4961845;28;20234;-71
2023/12/04 04:05:36;;;;;;;1.92;1.83;;;17.70;51.50;;;;;;4987328;28;20196;-71
2023/12/04 04:08:05;;;;;;;1.70;1.60;;;17.70;51.50;;;;;;4972630;28;20624;-72
2023/12/04 04:10:31;;;;;;;1.98;1.80;;;17.70;51.50;;;;;;4972065;28;20197;-71
2023/12/04 04:12:58;;;;;;;1.90;1.80;;;17.70;51.50;;;;;;4978626;28;20198;-71
2023/12/04 04:15:23;;;;;;;1.60;1.50;;;17.70;51.50;;;;;;4965333;28;20197;-71
2023/12/04 04:17:49;;;;;;;1.73;1.63;;;17.70;51.50;;;;;;4967523;28;20213;-72
2023/12/04 04:20:15;;;;;;;2.20;2.00;;;17.70;51.50;;;;;;4956990;28;20198;-71
2023/12/04 04:22:41;;;;;;;2.10;1.90;;;17.70;51.60;;;;;;4969984;28;20837;-71
2023/12/04 04:25:08;;;;;;;1.98;1.88;;;17.70;51.60;;;;;;4955483;28;20198;-70
2023/12/04 04:27:34;;;;;;;1.77;1.67;;;17.70;51.50;;;;;;4951403;28;20190;-71
2023/12/04 04:30:01;;;;;;;1.80;1.70;;;17.70;51.50;;;;;;4966035;28;20257;-71
2023/12/04 04:32:26;;;;;;;1.88;1.77;;;17.70;51.00;;;;;;4964623;28;20199;-71
2023/12/04 04:34:52;;;;;;;2.10;2.00;;;17.70;51.50;;;;;;4986753;28;20190;-71
2023/12/04 04:37:19;;;;;;;1.90;1.80;;;17.70;51.50;;;;;;4977091;28;20189;-71
2023/12/04 04:39:45;;;;;;;1.90;1.80;;;17.70;51.60;;;;;;4975399;28;20213;-71
2023/12/04 04:42:11;;;;;;;2.22;2.03;;;17.70;51.60;;;;;;4987391;28;20249;-69
2023/12/04 04:44:37;;;;;;;1.90;1.80;;;17.70;51.60;;;;;;4971477;28;20248;-71
2023/12/04 04:47:03;;;;;;;1.90;1.80;;;17.70;51.50;;;;;;4967822;28;20186;-71
2023/12/04 04:49:29;;;;;;;2.22;2.03;;;17.70;51.50;;;;;;4986437;28;20206;-69
2023/12/04 04:51:55;;;;;;;2.17;2.08;;;17.70;51.50;;;;;;4962834;28;20236;-71
2023/12/04 04:54:20;;;;;;;1.95;1.85;;;17.70;51.50;;;;;;4961041;28;20226;-71
2023/12/04 04:56:46;;;;;;;1.90;1.80;;;17.70;51.50;;;;;;4959336;28;20237;-70
2023/12/04 04:59:12;;;;;;;2.00;1.90;;;17.70;51.50;;;;;;4975512;28;20205;-71
2023/12/04 05:01:37;;;;;;;2.30;2.10;;;17.70;51.50;;;;;;4990490;28;20221;-71
2023/12/04 05:04:03;;;;;;;2.05;1.95;;;17.70;51.50;;;;;;4975506;28;20214;-72
2023/12/04 05:06:30;;;;;;;2.03;1.92;;;17.70;51.50;;;;;;4958392;28;20638;-72
2023/12/04 05:08:56;;;;;;;2.00;1.90;;;17.70;51.50;;;;;;4990117;28;20280;-71
2023/12/04 05:11:22;;;;;;;2.47;2.33;;;17.70;51.50;;;;;;4976382;28;20276;-71
2023/12/04 05:13:48;;;;;;;2.35;2.15;;;17.70;51.40;;;;;;4974019;28;20281;-72
2023/12/04 05:16:14;;;;;;;2.03;1.92;;;17.70;51.50;;;;;;4973705;28;20204;-71
2023/12/04 05:18:40;;;;;;;2.08;1.98;;;17.70;51.50;;;;;;4972675;28;20210;-72
2023/12/04 05:21:10;;;;;;;2.10;1.98;;;17.70;51.50;;;;;;4975494;28;20189;-71
2023/12/04 05:23:37;;;;;;;2.17;2.00;;;17.70;51.40;;;;;;4974984;28;20264;-71
2023/12/04 05:26:04;;;;;;;2.10;2.00;;;17.70;51.50;;;;;;4979070;28;20181;-71
2023/12/04 05:28:30;;;;;;;2.20;2.10;;;17.70;51.50;;;;;;4995581;28;20204;-71
2023/12/04 05:30:55;;;;;;;2.50;2.30;;;17.70;51.50;;;;;;4963296;28;20189;-70
2023/12/04 05:33:21;;;;;;;2.08;1.98;;;17.70;51.60;;;;;;4971302;28;20262;-71
2023/12/04 05:35:53;;;;;;;2.60;2.40;;;17.70;51.40;;;;;;4963424;28;20252;-71
2023/12/04 05:38:19;;;;;;;2.20;2.10;;;17.70;51.50;;;;;;4973724;28;20274;-71
2023/12/04 05:40:45;;;;;;;2.40;2.20;;;17.70;51.40;;;;;;4975811;28;20221;-71
2023/12/04 05:43:11;;;;;;;2.78;2.58;;;17.70;51.50;;;;;;4994516;28;20212;-71
2023/12/04 05:45:36;;;;;;;3.00;2.80;;;17.70;51.50;;;;;;4968657;28;20197;-71
2023/12/04 05:48:02;;;;;;;2.60;2.40;;;17.70;51.40;;;;;;4984169;28;20190;-69
2023/12/04 05:50:28;;;;;;;2.63;2.42;;;17.70;51.40;;;;;;4973447;28;20253;-67
2023/12/04 05:52:54;;;;;;;2.45;2.25;;;17.70;51.40;;;;;;4976143;28;20196;-71
2023/12/04 05:55:20;;;;;;;2.60;2.40;;;17.70;51.40;;;;;;4973334;28;20182;-71
2023/12/04 05:57:46;;;;;;;2.58;2.38;;;17.70;51.40;;;;;;4974021;28;20190;-70
2023/12/04 06:00:13;;;;;;;2.67;2.47;;;17.70;51.40;;;;;;4972910;28;20201;-71
2023/12/04 06:02:43;;;;;;;2.75;2.38;;;17.70;51.40;;;;;;4978228;28;20265;-68
2023/12/04 06:05:09;;;;;;;2.53;2.30;;;17.70;51.30;;;;;;4982618;28;20189;-70
2023/12/04 06:07:37;;;;;;;2.38;2.20;;;17.70;51.40;;;;;;4978514;28;20190;-71
2023/12/04 06:10:06;;;;;;;2.58;2.38;;;17.70;51.40;;;;;;4973250;28;20216;-70
2023/12/04 06:12:32;;;;;;;2.60;2.40;;;17.70;51.40;;;;;;4972942;28;20200;-70
2023/12/04 06:14:58;;;;;;;3.10;2.50;;;17.70;51.30;;;;;;4956926;28;20202;-69
2023/12/04 06:17:25;;;;;;;2.67;2.47;;;17.70;51.40;;;;;;4974972;28;20220;-71
2023/12/04 06:19:51;;;;;;;2.70;2.50;;;17.70;51.90;;;;;;4976474;28;20236;-71
2023/12/04 06:22:19;;;;;;;2.90;2.70;;;17.60;51.20;;;;;;4969631;28;20218;-71
2023/12/04 06:24:46;;;;;;;2.88;2.67;;;17.60;51.30;;;;;;4967184;28;20182;-71
2023/12/04 06:27:20;;;;;;;3.15;2.95;;;17.60;51.20;;;;;;4973090;28;20220;-69
2023/12/04 06:29:47;;;;;;;3.08;2.88;;;17.70;51.40;;;;;;4974258;28;20217;-70
2023/12/04 06:32:13;;;;;;;3.42;3.13;;;17.70;51.40;;;;;;4968675;28;20186;-70
2023/12/04 06:34:39;;;;;;;4.40;2.78;;;17.70;51.30;;;;;;4977027;28;20185;-70
2023/12/04 06:37:13;;;;;;;3.20;2.95;;;17.70;51.30;;;;;;4953080;28;20190;-69
2023/12/04 06:39:40;;;;;;;3.53;3.22;;;17.70;51.30;;;;;;4972352;28;20217;-70
2023/12/04 06:42:11;;;;;;;3.72;3.42;;;17.60;51.20;;;;;;4973596;28;20226;-70
2023/12/04 06:44:37;;;;;;;3.20;2.90;;;17.60;51.20;;;;;;4972413;28;20557;-69
2023/12/04 06:47:05;;;;;;;2.70;2.50;;;17.60;51.20;;;;;;4976760;28;20193;-70
2023/12/04 06:49:32;;;;;;;3.40;3.10;;;17.60;51.20;;;;;;4972469;28;20231;-70
2023/12/04 06:52:00;;;;;;;3.08;2.88;;;17.70;51.40;;;;;;4972283;28;20197;-70
2023/12/04 06:54:26;;;;;;;2.92;2.72;;;17.60;51.20;;;;;;4972397;28;20189;-71
2023/12/04 06:56:52;;;;;;;3.30;3.00;;;17.60;51.30;;;;;;4956017;28;20190;-70
2023/12/04 06:59:18;;;;;;;3.22;3.03;;;17.70;51.40;;;;;;4971983;28;20212;-70
2023/12/04 07:01:44;;;;;;;2.90;2.70;;;17.60;51.20;;;;;;4967872;28;20240;-70
2023/12/04 07:04:10;;;;;;;3.20;3.00;;;17.60;51.20;;;;;;4992485;28;20268;-69
2023/12/04 07:06:38;;;;;;;3.13;2.92;;;17.70;51.20;;;;;;4972014;28;20189;-69
2023/12/04 07:09:04;;;;;;;2.83;2.63;;;17.60;51.20;;;;;;4972378;28;20217;-69
2023/12/04 07:11:30;;;;;;;2.97;2.78;;;17.60;51.20;;;;;;4973065;28;20177;-69
2023/12/04 07:13:56;;;;;;;3.33;2.78;;;17.60;51.20;;;;;;4956851;28;20189;-69
2023/12/04 07:16:22;;;;;;;3.42;3.08;;;17.60;51.20;;;;;;4971987;28;20225;-69
2023/12/04 07:18:47;;;;;;;3.20;3.00;;;17.70;51.20;;;;;;4975744;28;20217;-69
2023/12/04 07:21:13;;;;;;;3.08;2.88;;;17.60;51.20;;;;;;4971830;28;20277;-69
2023/12/04 07:23:39;;;;;;;3.03;2.83;;;17.60;51.20;;;;;;4972020;28;20209;-69
2023/12/04 07:26:06;;;;;;;3.53;3.22;;;17.70;51.40;;;;;;4956058;28;20190;-69
2023/12/04 07:28:33;;;;;;;3.30;3.00;;;17.60;51.20;;;;;;4971480;28;20232;-69
2023/12/04 07:31:00;;;;;;;2.90;2.70;;;17.60;51.20;;;;;;4973190;28;20201;-69
2023/12/04 07:33:26;;;;;;;3.03;2.83;;;17.60;51.20;;;;;;4972941;28;20196;-69
2023/12/04 07:35:52;;;;;;;3.20;3.00;;;17.70;51.20;;;;;;4955675;28;20197;-68
2023/12/04 07:38:18;;;;;;;2.55;2.35;;;17.70;51.20;;;;;;4987582;28;20213;-70
2023/12/04 07:40:45;;;;;;;2.85;2.65;;;17.70;51.30;;;;;;4979842;28;20248;-70
2023/12/04 07:43:12;;;;;;;3.00;2.80;;;17.60;51.20;;;;;;4971666;28;20217;-70
2023/12/04 07:45:37;;;;;;;2.92;2.72;;;17.70;51.20;;;;;;4988043;28;20189;-69
2023/12/04 07:48:04;;;;;;;3.13;2.92;;;17.60;51.10;;;;;;4951269;28;20259;-69
2023/12/04 07:50:30;;;;;;;2.80;2.60;;;17.60;51.20;;;;;;4971713;28;20192;-70
2023/12/04 07:52:56;;;;;;;3.40;3.10;;;17.60;51.20;;;;;;4953264;28;20194;-69
2023/12/04 07:55:21;;;;;;;3.20;3.00;;;17.70;51.20;;;;;;4971436;28;20225;-70
2023/12/04 07:57:48;;;;;;;3.00;2.80;;;17.70;51.90;;;;;;4954389;28;20560;-68
2023/12/04 08:00:14;;;;;;;3.33;3.03;;;17.70;51.20;;;;;;4970625;28;20201;-70
2023/12/04 08:02:40;;;;;;;3.58;3.28;;;17.70;51.30;;;;;;4958973;28;20217;-70
2023/12/04 08:05:06;;;;;;;3.13;2.83;;;17.70;51.30;;;;;;4990070;28;20221;-70
2023/12/04 08:07:32;;;;;;;3.33;2.80;;;17.70;51.30;;;;;;4987603;28;20210;-70
2023/12/04 08:09:58;;;;;;;3.10;2.80;;;17.60;51.10;;;;;;4954188;28;20571;-69
2023/12/04 08:12:24;;;;;;;2.90;2.70;;;17.60;51.30;;;;;;4974720;28;20232;-69
2023/12/04 08:14:49;;;;;;;3.10;2.80;;;17.60;51.20;;;;;;4974827;28;20229;-70
2023/12/04 08:17:15;;;;;;;3.33;3.05;;;17.70;51.30;;;;;;4987536;28;20196;-68
2023/12/04 08:19:41;;;;;;;3.30;3.05;;;17.60;51.20;;;;;;4976110;28;20723;-69
2023/12/04 08:22:07;;;;;;;3.13;2.90;;;17.60;51.10;;;;;;4975646;28;20264;-70
2023/12/04 08:24:33;;;;;;;3.25;2.95;;;17.60;51.20;;;;;;4973229;28;20193;-69
2023/12/04 08:26:58;;;;;;;2.97;2.78;;;17.60;51.20;;;;;;4953730;28;20190;-69
2023/12/04 08:29:24;;;;;;;2.97;2.78;;;17.60;51.20;;;;;;4990844;28;20712;-69
2023/12/04 08:31:50;;;;;;;2.80;2.60;;;17.60;51.20;;;;;;4985533;28;20220;-70
2023/12/04 08:34:16;;;;;;;3.05;2.85;;;17.60;51.20;;;;;;4982895;28;20244;-70
2023/12/04 08:36:41;;;;;;;3.58;2.72;;;17.70;51.20;;;;;;4979637;28;20201;-69
2023/12/04 08:39:07;;;;;;;2.85;2.65;;;17.60;51.20;;;;;;4993657;28;20221;-70
2023/12/04 08:41:33;;;;;;;3.38;3.10;;;17.70;51.30;;;;;;4974747;28;20228;-69
2023/12/04 08:43:59;;;;;;;3.00;2.80;;;17.70;51.30;;;;;;4975781;28;20321;-68
2023/12/04 08:46:24;;;;;;;3.13;2.83;;;17.70;51.30;;;;;;4974362;28;20186;-68
2023/12/04 08:48:50;;;;;;;3.00;2.80;;;17.70;51.30;;;;;;4975819;28;20206;-67
2023/12/04 08:51:17;;;;;;;3.17;2.90;;;17.70;51.20;;;;;;4975085;28;20650;-70
2023/12/04 08:53:43;;;;;;;3.08;2.88;;;17.70;51.20;;;;;;4984694;28;20190;-70
2023/12/04 08:56:10;;;;;;;2.70;2.50;;;17.70;51.20;;;;;;4964050;28;20200;-70
2023/12/04 08:58:37;;;;;;;2.63;2.42;;;17.70;51.30;;;;;;4974063;28;20213;-70
2023/12/04 09:01:03;;;;;;;2.70;2.50;;;17.60;51.20;;;;;;4976553;28;20198;-68
2023/12/04 09:03:31;;;;;;;2.70;2.50;;;17.70;51.30;;;;;;4974363;28;20224;-70
2023/12/04 09:05:57;;;;;;;3.05;2.83;;;17.70;51.30;;;;;;4960424;28;20193;-70
2023/12/04 09:08:26;;;;;;;2.97;2.78;;;17.70;51.20;;;;;;4990214;28;20707;-70
2023/12/04 09:10:52;;;;;;;3.22;2.95;;;17.70;51.20;;;;;;4958682;28;20185;-70
2023/12/04 09:13:17;;;;;;;3.40;3.10;;;17.70;51.20;;;;;;4987258;28;20204;-69
2023/12/04 09:15:43;;;;;;;3.28;2.97;;;17.70;51.30;;;;;;4987323;28;20250;-70
2023/12/04 09:18:09;;;;;;;3.17;2.90;;;17.70;51.20;;;;;;4959926;28;20246;-69
2023/12/04 09:20:35;;;;;;;3.38;3.08;;;17.70;51.20;;;;;;4974363;28;20197;-69
2023/12/04 09:23:01;;;;;;;3.40;3.10;;;17.70;51.10;;;;;;4966181;28;20300;-70
2023/12/04 09:25:27;;;;;;;2.70;2.50;;;17.70;51.10;;;;;;4992059;28;20197;-70
2023/12/04 09:27:53;;;;;;;3.28;2.97;;;17.70;51.20;;;;;;4989863;28;20194;-68
2023/12/04 09:30:19;;;;;;;3.35;3.15;;;17.80;51.30;;;;;;4984091;28;20221;-70
2023/12/04 09:32:44;;;;;;;3.28;2.97;;;17.80;51.30;;;;;;4957745;28;20664;-70
2023/12/04 09:35:10;;;;;;;3.53;2.95;;;17.80;51.20;;;;;;4961042;28;20268;-69
2023/12/04 09:37:36;;;;;;;3.30;3.00;;;17.80;51.20;;;;;;4989719;28;20205;-70
2023/12/04 09:40:03;;;;;;;3.75;2.80;;;17.80;51.20;;;;;;4970374;28;20252;-70
2023/12/04 09:42:31;;;;;;;2.80;2.60;;;17.80;51.20;;;;;;4974989;28;20221;-69
2023/12/04 09:44:58;;;;;;;3.08;2.88;;;17.80;51.10;;;;;;4977343;28;20577;-70
2023/12/04 09:47:26;;;;;;;3.05;2.85;;;17.80;51.20;;;;;;4959516;28;20248;-69
2023/12/04 09:49:53;;;;;;;2.92;2.70;;;17.80;51.20;;;;;;4977918;28;20217;-70
2023/12/04 09:52:20;;;;;;;3.10;2.90;;;17.80;51.20;;;;;;4972691;28;20202;-69
2023/12/04 09:54:46;;;;;;;2.75;2.55;;;17.80;51.20;;;;;;4957374;28;20200;-70
2023/12/04 09:57:13;;;;;;;2.63;2.42;;;17.80;51.20;;;;;;4957009;28;20700;-69
2023/12/04 09:59:40;;;;;;;2.60;2.40;;;17.80;51.20;;;;;;4973142;28;20205;-70
2023/12/04 10:02:06;;;;;;;3.47;3.17;;;17.80;51.10;;;;;;4974871;28;20263;-70
2023/12/04 10:04:34;;;;;;;3.17;2.90;;;17.80;51.20;;;;;;4990508;28;20192;-69
2023/12/04 10:06:59;;;;;;;2.70;2.50;;;17.80;51.10;;;;;;4952605;28;20281;-70
2023/12/04 10:09:25;;;;;;;3.10;2.80;;;17.80;51.20;;;;;;4976814;28;20291;-69
2023/12/04 10:11:51;;;;;;;2.70;2.50;;;17.80;51.20;;;;;;4956893;28;20227;-70
2023/12/04 10:14:21;;;;;;;2.90;2.70;;;17.80;51.10;;;;;;4975814;28;20189;-69
2023/12/04 10:16:48;;;;;;;2.83;2.63;;;17.80;51.10;;;;;;4978302;28;20196;-70
2023/12/04 10:19:27;;;;;;;3.08;2.88;;;17.80;51.10;;;;;;4966340;28;20283;-70
2023/12/04 10:21:59;;;;;;;2.83;2.63;;;17.80;51.10;;;;;;4956739;28;20190;-69
2023/12/04 10:24:35;;;;;;;3.00;2.80;;;17.80;51.10;;;;;;4972317;28;20194;-70
2023/12/04 10:27:04;;;;;;;3.30;3.00;;;17.90;51.30;;;;;;4972258;28;20200;-69
2023/12/04 10:29:45;;;;;;;2.72;2.53;;;17.80;51.20;;;;;;4964619;28;20257;-70
2023/12/04 10:32:11;;;;;;;2.60;2.40;;;17.90;51.30;;;;;;4973503;28;20198;-68
2023/12/04 10:34:38;;;;;;;3.20;3.00;;;17.80;51.20;;;;;;4973041;28;20200;-70
2023/12/04 10:37:05;;;;;;;2.75;2.55;;;17.90;51.30;;;;;;4951333;28;20288;-70
2023/12/04 10:39:44;;;;;;;2.60;2.40;;;17.90;51.30;;;;;;4988625;28;20213;-69
2023/12/04 10:42:10;;;;;;;2.70;2.50;;;17.90;51.30;;;;;;4980821;28;20199;-70
2023/12/04 10:44:36;;;;;;;2.70;2.50;;;17.90;51.30;;;;;;4988610;28;20193;-70
2023/12/04 10:47:03;;;;;;;3.20;3.00;;;17.90;51.20;;;;;;4965995;28;20194;-70
2023/12/04 10:49:29;;;;;;;2.75;2.55;;;17.90;51.20;;;;;;4974590;28;20296;-70
2023/12/04 10:51:59;;;;;;;3.05;2.85;;;17.90;51.30;;;;;;4977236;28;20281;-68
2023/12/04 10:54:26;;;;;;;3.03;2.80;;;17.90;51.20;;;;;;4988590;28;20190;-69
2023/12/04 10:56:58;;;;;;;3.08;2.88;;;17.90;51.20;;;;;;4952481;28;20187;-70
2023/12/04 10:59:32;;;;;;;2.85;2.60;;;17.90;51.20;;;;;;4987175;28;20213;-68
2023/12/04 11:02:04;;;;;;;3.28;2.97;;;17.90;51.20;;;;;;4957639;28;20290;-70
2023/12/04 11:04:33;;;;;;;3.45;3.15;;;17.90;51.20;;;;;;4972219;28;20217;-70
2023/12/04 11:07:03;;;;;;;3.50;3.20;;;17.90;51.30;;;;;;4976683;28;20178;-70
2023/12/04 11:09:35;;;;;;;3.42;3.17;;;17.90;51.30;;;;;;4988599;28;20205;-70
2023/12/04 11:12:08;;;;;;;3.35;3.15;;;17.90;51.30;;;;;;4972178;28;20252;-69
2023/12/04 11:14:48;;;;;;;3.80;3.50;;;18.00;51.90;;;;;;4957055;28;20181;-69
2023/12/04 11:17:16;;;;;;;3.45;3.15;;;18.00;51.30;;;;;;4983835;28;20193;-68
2023/12/04 11:20:17;;;;;;;3.70;3.40;;;18.00;51.30;;;;;;4974062;28;20213;-69
2023/12/04 11:22:46;;;;;;;3.60;3.30;;;18.00;51.30;;;;;;4949025;28;20291;-69
2023/12/04 11:25:14;;;;;;;3.70;3.40;;;18.00;51.40;;;;;;4957650;28;20632;-69
2023/12/04 11:27:42;;;;;;;3.63;3.33;;;18.00;51.40;;;;;;4987723;28;20194;-69
2023/12/04 11:30:12;;;;;;;3.58;3.28;;;18.00;52.00;;;;;;4971849;28;20217;-67
2023/12/04 11:32:45;;;;;;;3.80;3.50;;;18.00;51.30;;;;;;4971357;28;20247;-70
2023/12/04 11:35:18;;;;;;;4.10;3.80;;;18.00;51.30;;;;;;4982694;28;20197;-69
2023/12/04 11:37:46;;;;;;;3.47;3.17;;;18.00;51.40;;;;;;4964705;28;20220;-71
2023/12/04 11:40:15;;;;;;;4.10;3.78;;;18.00;51.40;;;;;;4968742;28;20205;-69
2023/12/04 11:42:42;;;;;;;3.70;3.40;;;18.10;51.50;;;;;;4987894;28;20715;-67
2023/12/04 11:45:08;;;;;;;3.92;3.63;;;18.00;51.40;;;;;;4968545;28;20201;-68
2023/12/04 11:47:57;;;;;;;3.80;3.50;;;18.10;51.50;;;;;;4955724;28;20196;-67
2023/12/04 11:50:27;;;;;;;5.03;4.32;;;18.10;51.50;;;;;;4971780;28;20201;-70
2023/12/04 11:52:54;;;;;;;4.30;3.90;;;18.10;51.50;;;;;;4985311;28;20197;-70
2023/12/04 11:55:25;;;;;;;5.05;4.65;;;18.10;51.50;;;;;;4964338;28;20216;-70
2023/12/04 11:57:54;;;;;;;4.30;3.90;;;18.10;51.50;;;;;;4972038;28;20189;-70
2023/12/04 12:00:22;;;;;;;4.60;4.20;;;18.10;51.60;;;;;;4958976;28;20185;-70
2023/12/04 12:03:01;;;;;;;4.47;4.07;;;18.10;51.50;;;;;;4964119;28;20237;-68
2023/12/04 12:05:28;;;;;;;4.43;4.03;;;18.10;51.60;;;;;;4975377;28;20188;-69
2023/12/04 12:07:54;;;;;;;5.82;4.57;;;18.10;51.60;;;;;;4983103;28;20228;-69
2023/12/04 12:10:21;;;;;;;5.07;4.57;;;18.10;51.60;;;;;;4971057;28;20223;-69
2023/12/04 12:12:48;;;;;;;4.93;4.53;;;18.10;51.60;;;;;;4964647;28;20213;-69
2023/12/04 12:15:14;;;;;;;6.93;6.30;;;18.10;51.60;;;;;;4959216;28;20190;-69
2023/12/04 12:17:41;;;;;;;5.47;5.07;;;18.10;51.60;;;;;;4974943;28;20263;-69
2023/12/04 12:20:09;;;;;;;6.43;5.80;;;18.10;51.60;;;;;;4971430;28;20213;-70
2023/12/04 12:22:37;;;;;;;7.13;6.43;;;18.10;51.60;;;;;;4974758;28;20509;-70
2023/12/04 12:25:22;;;;;;;10.68;9.32;;;18.10;51.60;;;;;;4973232;28;20178;-70
2023/12/04 12:27:48;;;;;;;9.73;8.52;;;18.10;51.60;;;;;;4991022;28;20213;-69
2023/12/04 12:30:14;;;;;;;9.48;8.23;;;18.10;51.70;;;;;;4966822;28;20608;-70
2023/12/04 12:32:40;;;;;;;9.70;8.68;;;18.10;51.70;;;;;;4987400;28;20189;-69
2023/12/04 12:35:09;;;;;;;9.75;8.75;;;18.10;51.70;;;;;;4979926;28;20547;-69
2023/12/04 12:37:35;;;;;;;9.52;8.38;;;18.10;51.70;;;;;;4968608;28;20201;-69
2023/12/04 12:40:01;;;;;;;9.18;8.25;;;18.10;51.70;;;;;;4999167;28;20220;-70
2023/12/04 12:42:28;;;;;;;9.40;8.02;;;18.10;51.70;;;;;;4970555;28;20202;-70
2023/12/04 12:44:59;;;;;;;8.70;7.85;;;18.10;51.80;;;;;;4978907;28;20186;-69
2023/12/04 12:47:25;;;;;;;8.90;8.00;;;18.10;51.80;;;;;;4974353;28;20185;-69